Time;durP1;ratioP1;P1;durP2;ratioP2;P2;SDS_P1;SDS_P2;PMS_P1;PMS_P2;Temp;Humidity;BMP_temperature;BMP_pressure;BME280_temperature;BME280_humidity;BME280_pressure;Samples;Min_cycle;Max_cycle;Signal;HPM_P1;HPM_P2
2022/02/24 00:02:21;;;;;;;28.05;9.43;;;;;;;3.36;83.48;99626.00;5026914;28;20037;-54
2022/02/24 00:04:47;;;;;;;33.33;11.48;;;;;;;3.01;85.60;99624.97;5033208;28;20094;-54
2022/02/24 00:07:12;;;;;;;31.80;12.75;;;;;;;3.02;85.75;99623.94;5030346;28;20180;-53
2022/02/24 00:09:38;;;;;;;45.58;14.38;;;;;;;2.99;86.00;99614.53;5033375;28;20408;-55
2022/02/24 00:12:04;;;;;;;44.40;13.75;;;;;;;2.98;86.21;99618.22;5032990;28;20480;-55
2022/02/24 00:14:30;;;;;;;39.10;14.18;;;;;;;2.98;86.48;99612.09;5028141;28;20025;-54
2022/02/24 00:16:56;;;;;;;33.88;12.00;;;;;;;3.03;85.98;99610.53;5027833;28;20396;-54
2022/02/24 00:19:21;;;;;;;25.17;9.52;;;;;;;3.08;86.33;99607.34;5033469;28;20099;-52
2022/02/24 00:21:46;;;;;;;26.13;8.27;;;;;;;3.13;86.67;99612.09;5032897;28;20041;-55
2022/02/24 00:24:12;;;;;;;18.42;7.72;;;;;;;3.15;85.46;99604.78;5032913;28;20365;-55
2022/02/24 00:26:37;;;;;;;16.88;7.18;;;;;;;3.31;83.86;99598.44;5026690;28;20034;-55
2022/02/24 00:29:03;;;;;;;20.00;6.93;;;;;;;3.37;83.95;99608.28;5028523;28;20112;-54
2022/02/24 00:31:29;;;;;;;17.50;8.02;;;;;;;3.36;84.05;99604.00;5030028;28;20254;-55
2022/02/24 00:33:54;;;;;;;18.30;8.18;;;;;;;3.35;83.98;99603.19;5033908;28;20025;-55
2022/02/24 00:36:19;;;;;;;23.25;7.85;;;;;;;3.37;84.44;99602.97;5033679;28;20075;-54
2022/02/24 00:38:45;;;;;;;17.77;7.90;;;;;;;3.34;84.53;99600.72;5029775;28;20363;-56
2022/02/24 00:41:10;;;;;;;24.95;8.68;;;;;;;3.42;84.37;99608.53;5027258;28;20042;-54
2022/02/24 00:43:36;;;;;;;21.85;8.25;;;;;;;3.42;84.33;99603.25;5035039;28;20044;-55
2022/02/24 00:46:01;;;;;;;26.70;8.00;;;;;;;3.42;84.37;99611.19;5027743;28;20392;-54
2022/02/24 00:48:26;;;;;;;19.27;5.60;;;;;;;3.65;84.58;99590.66;5031489;28;20037;-54
2022/02/24 00:50:52;;;;;;;21.50;5.10;;;;;;;3.86;84.64;99595.13;5033806;28;20033;-55
2022/02/24 00:53:17;;;;;;;24.23;7.65;;;;;;;3.73;83.77;99594.22;5031079;28;20079;-54
2022/02/24 00:55:44;;;;;;;29.85;8.70;;;;;;;3.51;84.18;99590.72;5026180;28;20037;-55
2022/02/24 00:58:09;;;;;;;21.02;9.00;;;;;;;3.49;84.64;99592.72;5027762;28;20021;-55
2022/02/24 01:00:34;;;;;;;18.38;8.27;;;;;;;3.47;85.36;99584.97;5031192;28;20428;-55
2022/02/24 01:03:00;;;;;;;22.42;8.07;;;;;;;3.33;86.26;99578.69;5031515;28;20033;-55
2022/02/24 01:05:25;;;;;;;20.67;7.18;;;;;;;3.51;86.24;99574.81;5033034;28;20040;-55
2022/02/24 01:07:51;;;;;;;17.75;6.10;;;;;;;3.59;85.64;99578.16;5031950;28;20022;-55
2022/02/24 01:10:16;;;;;;;14.30;4.88;;;;;;;3.57;85.90;99582.84;5041929;28;20398;-55
2022/02/24 01:12:42;;;;;;;11.55;5.43;;;;;;;3.60;85.21;99574.50;5039180;28;20013;-54
2022/02/24 01:15:08;;;;;;;14.77;6.30;;;;;;;3.59;85.42;99572.84;5031855;28;20486;-55
2022/02/24 01:17:34;;;;;;;28.90;9.90;;;;;;;3.54;85.41;99569.94;5030355;28;20534;-53
2022/02/24 01:20:00;;;;;;;32.00;12.57;;;;;;;3.54;85.75;99564.66;5039357;28;20448;-53
2022/02/24 01:22:25;;;;;;;18.40;6.18;;;;;;;3.74;86.32;99561.38;5034999;28;20095;-55
2022/02/24 01:24:51;;;;;;;10.52;3.85;;;;;;;3.93;86.00;99558.09;5037688;28;20467;-54
2022/02/24 01:27:17;;;;;;;8.98;3.90;;;;;;;4.13;84.02;99546.81;5038538;28;20044;-56
2022/02/24 01:29:42;;;;;;;9.82;4.10;;;;;;;4.40;81.99;99540.69;5036831;28;20120;-54
2022/02/24 01:32:08;;;;;;;10.23;4.00;;;;;;;4.68;80.45;99545.13;5030864;28;20483;-55
2022/02/24 01:34:33;;;;;;;11.45;4.05;;;;;;;4.77;79.35;99541.31;5034044;28;20029;-54
2022/02/24 01:36:59;;;;;;;13.10;4.90;;;;;;;4.69;79.65;99541.44;5031449;28;20420;-53
2022/02/24 01:39:24;;;;;;;12.68;4.13;;;;;;;4.74;79.51;99533.72;5037157;28;20033;-54
2022/02/24 01:41:50;;;;;;;8.88;4.45;;;;;;;4.79;79.18;99539.25;5037492;28;20042;-54
2022/02/24 01:44:15;;;;;;;14.55;4.68;;;;;;;4.73;78.89;99524.13;5035146;28;20435;-55
2022/02/24 01:46:42;;;;;;;6.47;3.30;;;;;;;4.75;79.45;99519.44;5030249;28;20041;-55
2022/02/24 01:49:07;;;;;;;17.27;4.80;;;;;;;4.81;78.48;99523.13;5042959;28;20335;-54
2022/02/24 01:51:33;;;;;;;16.15;5.38;;;;;;;4.69;79.27;99520.19;5037086;28;20033;-53
2022/02/24 01:53:58;;;;;;;12.05;4.90;;;;;;;4.77;78.77;99514.75;5044345;28;20475;-54
2022/02/24 01:56:23;;;;;;;14.85;4.38;;;;;;;4.70;78.72;99508.59;5029721;28;20577;-54
2022/02/24 01:58:49;;;;;;;15.48;4.82;;;;;;;4.76;79.73;99502.47;5033486;28;20033;-55
2022/02/24 02:01:15;;;;;;;11.48;4.10;;;;;;;4.80;78.33;99501.06;5036383;28;20465;-52
2022/02/24 02:03:41;;;;;;;15.18;4.53;;;;;;;4.77;78.77;99501.47;5030288;28;20029;-54
2022/02/24 02:06:06;;;;;;;7.97;3.92;;;;;;;4.80;78.39;99494.94;5012085;28;20037;-54
2022/02/24 02:08:32;;;;;;;9.23;3.90;;;;;;;4.92;77.93;99488.84;5037801;28;20021;-55
2022/02/24 02:10:57;;;;;;;8.80;3.72;;;;;;;4.84;78.50;99483.72;5037879;28;20086;-55
2022/02/24 02:13:23;;;;;;;15.75;4.68;;;;;;;4.82;78.54;99477.78;5031088;28;20414;-53
2022/02/24 02:15:48;;;;;;;12.70;3.75;;;;;;;4.81;78.59;99475.31;5038822;28;20048;-56
2022/02/24 02:18:14;;;;;;;9.95;3.58;;;;;;;4.80;78.56;99474.50;5028095;28;20029;-53
2022/02/24 02:20:39;;;;;;;7.40;3.65;;;;;;;4.87;78.29;99475.34;5030591;28;20044;-53
2022/02/24 02:23:05;;;;;;;13.68;3.80;;;;;;;4.89;78.34;99475.13;5037278;28;20122;-54
2022/02/24 02:25:30;;;;;;;8.27;3.55;;;;;;;4.91;77.98;99473.09;5033186;28;20045;-53
2022/02/24 02:27:56;;;;;;;16.20;5.10;;;;;;;4.80;79.01;99468.38;5031983;28;20411;-54
2022/02/24 02:30:21;;;;;;;11.43;3.58;;;;;;;4.74;79.17;99460.19;5030145;28;20049;-51
2022/02/24 02:32:47;;;;;;;12.85;4.20;;;;;;;4.74;79.81;99469.97;5028024;28;20034;-54
2022/02/24 02:35:12;;;;;;;16.65;4.63;;;;;;;4.83;79.84;99465.31;5029975;28;20056;-53
2022/02/24 02:37:38;;;;;;;9.25;3.67;;;;;;;4.79;79.44;99462.22;5030396;28;20384;-57
2022/02/24 02:40:05;;;;;;;10.40;3.63;;;;;;;4.91;81.33;99465.13;5039453;28;20029;-52
2022/02/24 02:42:30;;;;;;;12.02;4.70;;;;;;;4.84;80.18;99453.66;5037222;28;20029;-54
2022/02/24 02:44:55;;;;;;;13.48;3.95;;;;;;;4.93;82.10;99457.78;5035353;28;20051;-54
2022/02/24 02:47:21;;;;;;;10.85;3.95;;;;;;;4.83;80.82;99447.53;5032152;28;20041;-54
2022/02/24 02:49:46;;;;;;;13.38;3.88;;;;;;;4.79;80.55;99445.47;5033054;28;20533;-53
2022/02/24 02:52:12;;;;;;;7.72;3.47;;;;;;;4.68;81.87;99442.38;5032181;28;20052;-54
2022/02/24 02:54:37;;;;;;;11.30;4.00;;;;;;;4.68;82.41;99438.91;5039782;28;20388;-55
2022/02/24 02:57:03;;;;;;;18.02;4.53;;;;;;;4.58;81.67;99433.97;5034391;28;20045;-54
2022/02/24 02:59:28;;;;;;;14.63;4.70;;;;;;;4.45;84.20;99440.06;5039562;28;20044;-54
2022/02/24 03:01:54;;;;;;;18.38;5.05;;;;;;;4.32;83.35;99434.69;5041344;28;20538;-54
2022/02/24 03:04:20;;;;;;;11.65;4.47;;;;;;;4.26;85.70;99435.47;5029168;28;20026;-54
2022/02/24 03:06:45;;;;;;;12.15;4.20;;;;;;;4.25;85.66;99426.69;5029220;28;20037;-53
2022/02/24 03:09:11;;;;;;;11.43;5.13;;;;;;;3.96;85.80;99424.28;5029961;28;20029;-54
2022/02/24 03:11:36;;;;;;;11.07;4.80;;;;;;;4.04;85.82;99414.34;5032575;28;20399;-55
2022/02/24 03:14:02;;;;;;;16.60;5.40;;;;;;;4.07;85.09;99411.28;5034902;28;20036;-54
2022/02/24 03:16:27;;;;;;;12.57;5.00;;;;;;;4.20;84.61;99405.25;5034290;28;20044;-53
2022/02/24 03:18:52;;;;;;;15.73;5.13;;;;;;;4.07;nan;99405.19;5031035;28;20396;-53
2022/02/24 03:21:18;;;;;;;9.35;5.07;;;;;;;4.18;85.02;99396.66;5028052;28;20049;-53
2022/02/24 03:23:43;;;;;;;12.15;4.90;;;;;;;4.20;84.66;99394.63;5030630;28;20087;-53
2022/02/24 03:26:09;;;;;;;15.85;5.32;;;;;;;4.24;84.65;99385.25;5034273;28;20045;-53
2022/02/24 03:28:34;;;;;;;13.77;5.05;;;;;;;4.23;84.30;99383.59;5029306;28;20060;-52
2022/02/24 03:31:00;;;;;;;14.35;5.35;;;;;;;4.19;85.56;99377.06;5030729;28;20045;-54
2022/02/24 03:33:25;;;;;;;15.88;5.13;;;;;;;4.15;85.99;99375.00;5034775;28;20029;-53
2022/02/24 03:35:50;;;;;;;10.93;4.93;;;;;;;4.18;85.51;99375.44;5027636;28;20049;-53
2022/02/24 03:38:16;;;;;;;14.77;5.25;;;;;;;4.23;86.21;99370.34;5030213;28;20034;-54
2022/02/24 03:40:41;;;;;;;13.05;6.07;;;;;;;4.19;85.43;99368.28;5027811;28;20421;-53
2022/02/24 03:43:07;;;;;;;15.73;5.88;;;;;;;4.10;85.55;99360.50;5032303;28;20386;-52
2022/02/24 03:45:32;;;;;;;20.50;6.50;;;;;;;4.04;86.30;99368.41;5030073;28;20057;-54
2022/02/24 03:47:58;;;;;;;15.68;4.38;;;;;;;4.10;88.27;99362.34;5032051;28;20025;-51
2022/02/24 03:50:24;;;;;;;14.05;5.43;;;;;;;4.17;85.60;99352.56;5035451;28;20062;-53
2022/02/24 03:52:50;;;;;;;14.93;6.00;;;;;;;4.09;85.99;99356.22;5033529;28;20013;-54
2022/02/24 03:55:15;;;;;;;16.20;7.25;;;;;;;4.00;85.33;99351.28;5034131;28;20043;-54
2022/02/24 03:57:40;;;;;;;24.63;8.10;;;;;;;3.85;85.06;99340.78;5027209;28;20419;-54
2022/02/24 04:00:07;;;;;;;25.40;8.15;;;;;;;3.77;85.67;99338.28;5027028;28;20304;-54
2022/02/24 04:02:33;;;;;;;32.28;9.90;;;;;;;3.71;85.71;99331.13;5027901;28;20033;-54
2022/02/24 04:04:58;;;;;;;35.60;11.10;;;;;;;3.60;85.44;99329.84;5037216;28;20106;-53
2022/02/24 04:07:24;;;;;;;36.22;10.73;;;;;;;3.56;85.42;99323.28;5031998;28;20244;-54
2022/02/24 04:09:49;;;;;;;31.05;9.52;;;;;;;3.64;85.25;99326.63;5039453;28;20040;-54
2022/02/24 04:12:15;;;;;;;34.17;10.27;;;;;;;3.74;84.74;99320.13;5036291;28;20564;-54
2022/02/24 04:14:42;;;;;;;30.80;10.05;;;;;;;3.79;85.07;99312.41;5035875;28;20029;-55
2022/02/24 04:17:08;;;;;;;41.45;12.25;;;;;;;3.75;86.12;99313.81;5025922;28;20048;-51
2022/02/24 04:19:33;;;;;;;48.50;14.18;;;;;;;3.71;86.28;99315.22;5031656;28;20029;-53
2022/02/24 04:21:59;;;;;;;42.10;13.15;;;;;;;3.65;86.34;99317.63;5027935;28;20084;-53
2022/02/24 04:24:24;;;;;;;38.95;11.52;;;;;;;3.61;85.92;99300.47;5036590;28;20034;-52
2022/02/24 04:26:49;;;;;;;42.70;11.10;;;;;;;3.46;86.08;99297.13;5032182;28;20045;-53
2022/02/24 04:29:15;;;;;;;33.20;10.02;;;;;;;3.53;85.39;99303.28;5038903;28;20033;-53
2022/02/24 04:31:40;;;;;;;31.33;9.35;;;;;;;3.60;85.95;99298.84;5026189;28;20045;-54
2022/02/24 04:34:06;;;;;;;33.92;10.30;;;;;;;3.61;85.98;99297.00;5036044;28;20112;-53
2022/02/24 04:36:31;;;;;;;28.80;10.32;;;;;;;3.54;85.97;99294.31;5028979;28;20045;-53
2022/02/24 04:38:56;;;;;;;25.38;8.48;;;;;;;3.51;86.16;99293.91;5034165;28;20033;-54
2022/02/24 04:41:22;;;;;;;29.80;9.77;;;;;;;3.56;86.35;99297.59;5038895;28;20044;-53
2022/02/24 04:43:47;;;;;;;20.00;9.65;;;;;;;3.52;86.11;99296.38;5031782;28;20057;-54
2022/02/24 04:46:13;;;;;;;35.97;10.43;;;;;;;3.50;85.89;99289.63;5036054;28;20049;-54
2022/02/24 04:48:38;;;;;;;27.20;9.65;;;;;;;3.51;86.51;99284.09;5031867;28;20095;-52
2022/02/24 04:51:03;;;;;;;41.78;10.20;;;;;;;3.51;86.05;99284.09;5035069;28;20403;-52
2022/02/24 04:53:29;;;;;;;28.73;9.10;;;;;;;3.52;86.77;99269.88;5036418;28;20021;-54
2022/02/24 04:55:54;;;;;;;24.00;9.05;;;;;;;3.48;85.75;99275.75;5032064;28;20065;-54
2022/02/24 04:58:20;;;;;;;27.10;9.85;;;;;;;3.47;85.89;99272.28;5033239;28;20029;-53
2022/02/24 05:00:46;;;;;;;21.55;8.65;;;;;;;3.44;86.36;99273.50;5042881;28;20041;-51
2022/02/24 05:03:11;;;;;;;22.25;8.70;;;;;;;3.52;86.66;99272.50;5038938;28;20033;-51
2022/02/24 05:05:37;;;;;;;28.02;9.70;;;;;;;3.52;86.92;99253.97;5035524;28;20049;-54
2022/02/24 05:08:03;;;;;;;26.85;9.65;;;;;;;3.57;86.89;99248.91;5037684;28;20016;-54
2022/02/24 05:10:28;;;;;;;34.33;9.70;;;;;;;3.59;86.17;99246.03;5031199;28;20396;-54
2022/02/24 05:12:55;;;;;;;27.58;9.95;;;;;;;3.61;85.91;99236.88;5035985;28;20116;-54
2022/02/24 05:15:20;;;;;;;28.27;8.93;;;;;;;3.69;86.65;99230.56;5031233;28;21224;-54
2022/02/24 05:17:46;;;;;;;27.98;10.63;;;;;;;3.65;87.07;99222.22;5033126;28;20061;-54
2022/02/24 05:20:12;;;;;;;24.27;9.23;;;;;;;3.60;86.51;99222.00;5034495;28;20025;-54
2022/02/24 05:22:40;;;;;;;35.72;11.00;;;;;;;3.62;87.12;99217.31;5039341;28;20095;-53
2022/02/24 05:25:06;;;;;;;42.22;10.70;;;;;;;3.64;87.62;99209.16;5032337;28;20488;-53
2022/02/24 05:27:32;;;;;;;43.13;9.85;;;;;;;3.48;87.38;99207.66;5034773;28;20025;-54
2022/02/24 05:29:57;;;;;;;32.75;10.82;;;;;;;3.51;87.66;99203.78;5034901;28;20037;-53
2022/02/24 05:32:22;;;;;;;24.48;9.23;;;;;;;3.50;87.98;99203.00;5029896;28;20543;-54
2022/02/24 05:34:48;;;;;;;31.13;11.38;;;;;;;3.53;87.75;99197.28;5030993;28;20032;-54
2022/02/24 05:37:13;;;;;;;27.42;8.95;;;;;;;3.55;88.01;99205.06;5030459;28;20084;-54
2022/02/24 05:39:39;;;;;;;34.58;10.35;;;;;;;3.48;87.90;99212.97;5031675;28;20550;-54
2022/02/24 05:42:04;;;;;;;26.48;11.00;;;;;;;3.40;88.43;99208.66;5030211;28;20042;-53
2022/02/24 05:44:29;;;;;;;30.83;10.82;;;;;;;3.31;88.76;99199.22;5030343;28;20045;-54
2022/02/24 05:46:55;;;;;;;29.30;10.20;;;;;;;3.38;89.13;99200.06;5034655;28;20044;-53
2022/02/24 05:49:20;;;;;;;32.55;9.30;;;;;;;3.43;89.72;99207.44;5040052;28;20483;-53
2022/02/24 05:51:46;;;;;;;34.40;10.48;;;;;;;3.34;89.12;99198.00;5018671;28;20091;-51
2022/02/24 05:54:11;;;;;;;35.70;11.38;;;;;;;3.37;89.25;99205.56;5035268;28;20029;-54
2022/02/24 05:56:37;;;;;;;36.55;10.50;;;;;;;3.39;89.73;99209.63;5029667;28;20053;-51
2022/02/24 05:59:03;;;;;;;38.33;10.35;;;;;;;3.44;89.30;99209.06;5033117;28;20075;-53
2022/02/24 06:01:28;;;;;;;33.05;9.50;;;;;;;3.34;89.75;99203.31;5031277;28;20111;-53
2022/02/24 06:03:53;;;;;;;34.03;10.57;;;;;;;3.46;89.61;99199.09;5042165;28;20480;-53
2022/02/24 06:06:19;;;;;;;34.83;10.57;;;;;;;3.49;89.45;99190.72;5034794;28;20038;-54
2022/02/24 06:08:44;;;;;;;38.08;11.30;;;;;;;3.50;89.33;99203.00;5038210;28;20037;-54
2022/02/24 06:11:10;;;;;;;34.03;10.32;;;;;;;3.48;89.14;99194.41;5038131;28;20080;-54
2022/02/24 06:13:35;;;;;;;33.47;10.70;;;;;;;3.50;89.32;99195.03;5036539;28;20033;-53
2022/02/24 06:16:01;;;;;;;38.10;11.60;;;;;;;3.50;89.13;99191.56;5034801;28;20041;-54
2022/02/24 06:18:26;;;;;;;32.55;11.48;;;;;;;3.45;89.34;99190.31;5031913;28;20122;-54
2022/02/24 06:20:52;;;;;;;51.35;13.90;;;;;;;3.39;89.43;99190.28;5029672;28;20045;-54
2022/02/24 06:23:17;;;;;;;39.65;13.45;;;;;;;3.52;89.53;99184.22;5028752;28;20036;-53
2022/02/24 06:25:42;;;;;;;55.55;13.23;;;;;;;3.53;89.24;99170.78;5034914;28;20046;-54
2022/02/24 06:28:08;;;;;;;94.82;25.60;;;;;;;3.61;88.96;99173.25;5029442;28;20099;-53
2022/02/24 06:30:33;;;;;;;47.65;15.00;;;;;;;3.62;89.20;99164.31;5036233;28;20195;-54
2022/02/24 06:32:59;;;;;;;43.25;14.43;;;;;;;3.71;88.75;99166.75;5036146;28;20036;-54
2022/02/24 06:35:24;;;;;;;21.08;7.88;;;;;;;3.89;88.18;99161.72;5038890;28;20040;-55
2022/02/24 06:37:50;;;;;;;19.83;8.30;;;;;;;4.15;87.70;99157.50;5035790;28;20040;-53
2022/02/24 06:40:15;;;;;;;17.73;7.40;;;;;;;4.40;89.02;99161.19;5027622;28;20017;-54
2022/02/24 06:42:40;;;;;;;26.05;10.55;;;;;;;4.29;86.83;99152.00;5035010;28;20044;-54
2022/02/24 06:45:06;;;;;;;51.35;12.43;;;;;;;4.07;88.40;99154.00;5035640;28;20060;-55
2022/02/24 06:47:32;;;;;;;51.67;13.70;;;;;;;3.95;88.50;99157.47;5034308;28;20104;-54
2022/02/24 06:49:57;;;;;;;37.90;12.30;;;;;;;3.82;89.30;99155.56;5035505;28;20391;-54
2022/02/24 06:52:23;;;;;;;37.90;13.50;;;;;;;3.81;89.39;99143.34;5012084;28;20041;-54
2022/02/24 06:54:48;;;;;;;35.05;11.75;;;;;;;3.70;89.66;99139.44;5034283;28;20095;-54
2022/02/24 06:57:13;;;;;;;41.85;11.65;;;;;;;3.59;90.57;99146.13;5032835;28;20033;-55
2022/02/24 06:59:39;;;;;;;38.33;11.43;;;;;;;3.56;90.50;99154.47;5030817;28;20151;-54
2022/02/24 07:02:05;;;;;;;33.25;11.02;;;;;;;3.63;89.85;99155.31;5032087;28;20743;-54
2022/02/24 07:04:31;;;;;;;29.48;8.70;;;;;;;4.05;89.44;99160.53;5029366;28;20028;-57
2022/02/24 07:06:58;;;;;;;24.02;7.35;;;;;;;4.26;88.92;99156.88;5036332;28;20123;-54
2022/02/24 07:09:26;;;;;;;18.98;6.90;;;;;;;4.49;88.82;99154.66;5030139;28;20051;-54
2022/02/24 07:11:52;;;;;;;15.95;5.85;;;;;;;4.64;88.99;99150.94;5029450;28;20042;-54
2022/02/24 07:14:17;;;;;;;16.42;6.78;;;;;;;4.71;87.18;99157.06;5029752;28;20034;-53
2022/02/24 07:16:43;;;;;;;15.18;5.63;;;;;;;4.83;86.93;99154.63;5027266;28;20134;-53
2022/02/24 07:19:09;;;;;;;14.15;4.85;;;;;;;4.94;86.29;99154.81;5036843;28;20391;-55
2022/02/24 07:21:34;;;;;;;14.90;5.32;;;;;;;5.03;86.29;99142.09;5035174;28;20543;-54
2022/02/24 07:23:59;;;;;;;13.40;5.25;;;;;;;5.12;85.35;99137.38;5036114;28;20045;-55
2022/02/24 07:26:25;;;;;;;12.23;5.60;;;;;;;5.28;84.98;99136.91;5034341;28;20553;-53
2022/02/24 07:28:50;;;;;;;8.05;4.40;;;;;;;5.30;84.64;99134.06;5033156;28;20029;-55
2022/02/24 07:31:16;;;;;;;9.80;5.07;;;;;;;5.40;84.34;99121.94;5031057;28;20091;-55
2022/02/24 07:33:41;;;;;;;11.43;4.78;;;;;;;5.39;84.66;99116.81;5031071;28;20118;-54
2022/02/24 07:36:07;;;;;;;8.55;4.55;;;;;;;5.40;84.61;99113.97;5039198;28;20100;-55
2022/02/24 07:38:32;;;;;;;14.77;4.70;;;;;;;5.45;84.46;99109.88;5035446;28;20107;-55
2022/02/24 07:40:58;;;;;;;15.57;4.75;;;;;;;5.49;84.02;99113.72;5032811;28;20495;-55
2022/02/24 07:43:23;;;;;;;16.60;5.25;;;;;;;5.49;84.13;99111.06;5029353;28;20033;-54
2022/02/24 07:45:49;;;;;;;25.92;8.57;;;;;;;5.10;85.44;99112.88;5034985;28;20376;-55
2022/02/24 07:48:14;;;;;;;28.23;9.27;;;;;;;5.04;86.09;99119.00;5035511;28;20030;-55
2022/02/24 07:50:39;;;;;;;29.83;10.35;;;;;;;4.61;86.61;99124.81;5038674;28;20136;-57
2022/02/24 07:53:05;;;;;;;32.20;9.98;;;;;;;4.61;87.04;99122.16;5029378;28;20585;-53
2022/02/24 07:55:30;;;;;;;30.27;9.75;;;;;;;4.49;87.25;99114.84;5027011;28;20091;-53
2022/02/24 07:57:56;;;;;;;27.52;9.38;;;;;;;4.54;87.65;99115.03;5027450;28;20030;-55
2022/02/24 08:00:21;;;;;;;30.55;9.68;;;;;;;4.62;87.62;99110.50;5027806;28;20081;-54
2022/02/24 08:02:47;;;;;;;30.90;9.20;;;;;;;4.76;87.50;99104.97;5032877;28;20052;-55
2022/02/24 08:05:12;;;;;;;15.27;4.70;;;;;;;5.03;86.97;99112.06;5033330;28;20486;-53
2022/02/24 08:07:38;;;;;;;20.20;7.90;;;;;;;4.96;86.54;99101.47;5034540;28;20021;-53
2022/02/24 08:10:04;;;;;;;18.60;6.30;;;;;;;5.11;86.89;99104.66;5032928;28;20558;-54
2022/02/24 08:12:39;;;;;;;21.50;6.95;;;;;;;5.16;86.69;99101.38;5032495;28;20475;-53
2022/02/24 08:15:15;;;;;;;20.33;8.95;;;;;;;5.06;86.36;99096.50;5036588;28;20033;-52
2022/02/24 08:17:40;;;;;;;15.88;6.85;;;;;;;5.26;86.29;99085.81;5032986;28;20029;-54
2022/02/24 08:20:07;;;;;;;28.45;9.18;;;;;;;5.22;85.38;99079.31;5034246;28;20047;-54
2022/02/24 08:22:34;;;;;;;13.30;5.95;;;;;;;5.34;85.18;99066.16;5029059;28;20018;-54
2022/02/24 08:25:00;;;;;;;15.23;5.45;;;;;;;5.70;84.42;99060.22;5031794;28;20114;-55
2022/02/24 08:27:25;;;;;;;16.02;7.05;;;;;;;5.98;83.06;99059.84;5028237;28;20042;-54
2022/02/24 08:29:53;;;;;;;23.23;11.43;;;;;;;6.05;82.19;99051.81;5035544;28;20037;-53
2022/02/24 08:32:19;;;;;;;10.65;4.88;;;;;;;6.37;80.12;99043.78;5033140;28;20049;-53
2022/02/24 08:34:44;;;;;;;10.70;4.53;;;;;;;6.71;78.95;99055.69;5029616;28;20449;-53
2022/02/24 08:37:10;;;;;;;22.08;8.93;;;;;;;7.26;77.75;99052.19;5027321;28;20042;-55
2022/02/24 08:39:35;;;;;;;12.85;5.78;;;;;;;7.61;75.86;99051.50;5027666;28;20483;-54
2022/02/24 08:42:01;;;;;;;56.63;23.55;;;;;;;7.70;76.22;99047.47;5027759;28;20092;-55
2022/02/24 08:44:26;;;;;;;14.15;5.25;;;;;;;7.39;77.25;99041.34;5031062;28;20041;-55
2022/02/24 08:46:51;;;;;;;9.00;3.78;;;;;;;7.38;77.01;99037.03;5028819;28;20115;-56
2022/02/24 08:49:17;;;;;;;6.22;3.30;;;;;;;7.39;77.58;99036.03;5033878;28;20724;-56
2022/02/24 08:51:42;;;;;;;13.35;3.55;;;;;;;7.36;77.09;99036.44;5032234;28;20506;-56
2022/02/24 08:54:08;;;;;;;9.63;3.40;;;;;;;7.16;77.37;99030.59;5030356;28;20436;-53
2022/02/24 08:56:34;;;;;;;5.70;2.78;;;;;;;7.29;76.86;99025.09;5036384;28;20468;-54
2022/02/24 08:58:59;;;;;;;7.43;3.45;;;;;;;7.17;77.21;99017.03;5031664;28;20037;-54
2022/02/24 09:01:25;;;;;;;8.68;4.28;;;;;;;7.11;78.05;99024.09;5027269;28;20030;-54
2022/02/24 09:03:50;;;;;;;7.53;3.55;;;;;;;7.12;78.36;99012.38;5027913;28;20474;-55
2022/02/24 09:06:16;;;;;;;6.13;3.30;;;;;;;7.01;78.29;99007.78;5033605;28;20073;-56
2022/02/24 09:08:43;;;;;;;13.75;3.25;;;;;;;7.21;77.94;99007.53;5033671;28;20552;-56
2022/02/24 09:11:09;;;;;;;10.32;3.42;;;;;;;7.31;77.98;98997.16;5034654;28;20118;-56
2022/02/24 09:13:34;;;;;;;11.02;3.65;;;;;;;7.28;77.51;99008.25;5029348;28;20105;-55
2022/02/24 09:16:00;;;;;;;6.47;3.45;;;;;;;7.25;77.81;99000.72;5028009;28;20045;-55
2022/02/24 09:18:25;;;;;;;19.08;3.20;;;;;;;7.32;77.61;98992.66;5030416;28;20450;-55
2022/02/24 09:20:51;;;;;;;13.25;3.53;;;;;;;7.40;77.13;98996.84;5029837;28;20068;-53
2022/02/24 09:23:16;;;;;;;11.98;3.30;;;;;;;7.42;76.88;98992.91;5040015;28;20032;-56
2022/02/24 09:25:42;;;;;;;10.80;3.22;;;;;;;7.44;76.84;98977.50;5035406;28;20041;-54
2022/02/24 09:28:08;;;;;;;10.20;3.58;;;;;;;7.56;76.75;98973.00;5030651;28;20022;-54
2022/02/24 09:30:33;;;;;;;11.55;3.67;;;;;;;7.59;76.72;98973.56;5036850;28;20045;-54
2022/02/24 09:32:59;;;;;;;8.50;3.45;;;;;;;7.78;76.56;98975.91;5035095;28;20044;-54
2022/02/24 09:35:24;;;;;;;11.05;3.85;;;;;;;7.97;76.27;98976.63;5031060;28;20037;-54
2022/02/24 09:37:50;;;;;;;8.27;3.42;;;;;;;8.10;75.52;98977.47;5031293;28;20502;-52
2022/02/24 09:40:15;;;;;;;10.82;3.30;;;;;;;8.19;74.93;98982.22;5032611;28;20040;-54
2022/02/24 09:42:41;;;;;;;6.78;2.88;;;;;;;8.09;75.61;98981.19;5035462;28;20029;-53
2022/02/24 09:45:08;;;;;;;10.38;3.05;;;;;;;7.97;75.57;98984.66;5033337;28;20056;-55
2022/02/24 09:47:36;;;;;;;12.43;3.30;;;;;;;8.07;75.44;98976.06;5035820;28;20144;-56
2022/02/24 09:50:01;;;;;;;8.00;2.72;;;;;;;8.13;75.76;98971.66;5025030;28;20021;-55
2022/02/24 09:52:27;;;;;;;7.28;3.30;;;;;;;7.90;76.17;98967.13;5030177;28;20476;-56
2022/02/24 09:54:52;;;;;;;8.13;2.95;;;;;;;8.00;76.12;98960.16;5034155;28;20025;-55
2022/02/24 09:57:17;;;;;;;7.15;2.88;;;;;;;8.04;76.02;98952.50;5030716;28;20119;-56
2022/02/24 09:59:43;;;;;;;7.15;2.85;;;;;;;8.17;76.77;98948.78;5034499;28;20029;-56
2022/02/24 10:02:09;;;;;;;15.13;2.97;;;;;;;8.14;75.79;98941.25;5036113;28;20037;-56
2022/02/24 10:04:34;;;;;;;6.65;3.08;;;;;;;8.17;75.83;98940.78;5035911;28;20083;-55
2022/02/24 10:07:00;;;;;;;15.32;3.05;;;;;;;8.28;76.00;98941.81;5036001;28;20462;-54
2022/02/24 10:09:31;;;;;;;7.28;3.03;;;;;;;8.54;75.55;98927.19;5034320;28;20036;-55
2022/02/24 10:12:07;;;;;;;11.60;3.20;;;;;;;8.53;74.24;98936.22;5037585;28;20172;-55
2022/02/24 10:14:32;;;;;;;11.18;3.47;;;;;;;8.59;74.37;98932.63;5034491;28;20060;-56
2022/02/24 10:17:04;;;;;;;9.90;3.42;;;;;;;8.67;74.06;98929.56;5029684;28;20064;-56
2022/02/24 10:19:45;;;;;;;10.25;2.97;;;;;;;8.82;74.09;98926.38;5035661;28;20503;-56
2022/02/24 10:22:34;;;;;;;12.77;3.80;;;;;;;8.77;74.74;98918.28;5039472;28;20038;-54
2022/02/24 10:25:04;;;;;;;8.05;3.10;;;;;;;8.82;74.88;98911.16;5036734;28;20025;-55
2022/02/24 10:27:39;;;;;;;9.63;3.47;;;;;;;8.76;74.97;98917.47;5029414;28;20072;-53
2022/02/24 10:30:07;;;;;;;10.77;3.40;;;;;;;8.66;75.45;98905.75;5031616;28;20037;-53
2022/02/24 10:32:36;;;;;;;8.80;3.33;;;;;;;8.60;75.92;98900.31;5027757;28;20596;-53
2022/02/24 10:35:18;;;;;;;10.70;3.08;;;;;;;8.53;75.75;98896.16;5033205;28;20037;-56
2022/02/24 10:37:50;;;;;;;8.00;3.40;;;;;;;8.76;75.36;98874.72;5036479;28;20426;-54
2022/02/24 10:40:18;;;;;;;10.23;3.58;;;;;;;9.01;74.65;98876.19;5033787;28;20476;-55
2022/02/24 10:42:44;;;;;;;12.05;3.15;;;;;;;9.15;73.73;98871.38;5029824;28;20426;-56
2022/02/24 10:45:11;;;;;;;10.38;3.33;;;;;;;9.52;71.94;98866.34;5032535;28;20045;-54
2022/02/24 10:48:00;;;;;;;10.43;2.85;;;;;;;9.60;71.99;98857.91;5029723;28;20034;-54
2022/02/24 10:50:44;;;;;;;6.32;3.08;;;;;;;9.61;71.35;98851.50;5031364;28;20042;-54
2022/02/24 10:53:09;;;;;;;9.52;3.35;;;;;;;9.62;72.20;98847.78;5034801;28;20029;-54
2022/02/24 10:56:11;;;;;;;6.03;3.45;;;;;;;9.70;72.01;98847.34;5029617;28;20742;-54
2022/02/24 10:58:40;;;;;;;;;;;;;;;9.73;71.60;98835.34;5007444;28;20033;-54
2022/02/24 11:01:11;;;;;;;10.48;3.13;;;;;;;9.47;72.72;98829.63;5032869;28;19929;-54
2022/02/24 11:03:37;;;;;;;7.97;3.40;;;;;;;9.04;73.82;98817.72;5028441;28;20498;-54
2022/02/24 11:06:04;;;;;;;11.93;3.40;;;;;;;8.92;73.87;98816.19;5032616;28;20037;-53
2022/02/24 11:08:30;;;;;;;12.38;3.40;;;;;;;8.74;74.67;98811.88;5034241;28;20344;-54
2022/02/24 11:10:56;;;;;;;8.88;3.78;;;;;;;8.78;75.10;98808.44;5031325;28;20053;-54
2022/02/24 11:13:21;;;;;;;10.35;3.78;;;;;;;8.79;75.69;98819.97;5036654;28;20515;-54
2022/02/24 11:15:47;;;;;;;18.13;3.95;;;;;;;8.83;75.49;98819.22;5030625;28;20045;-54
2022/02/24 11:18:13;;;;;;;13.38;4.50;;;;;;;8.79;76.42;98819.97;5029470;28;20099;-55
2022/02/24 11:20:39;;;;;;;15.15;3.92;;;;;;;9.00;76.79;98826.47;5034044;28;20076;-55
2022/02/24 11:23:05;;;;;;;12.52;3.95;;;;;;;9.03;76.04;98820.63;5034935;28;20491;-60
2022/02/24 11:25:31;;;;;;;15.38;4.10;;;;;;;8.95;75.66;98807.69;5019130;28;20044;-55
2022/02/24 11:27:56;;;;;;;8.00;3.65;;;;;;;9.01;75.75;98809.38;5017181;28;20517;-55
2022/02/24 11:30:25;;;;;;;9.65;4.15;;;;;;;9.02;75.28;98811.00;5032379;28;20103;-55